createdAt,value
2018-05-29T00:00:47.480Z,97920.27
2018-05-29T00:03:13.708Z,97920.81
2018-05-29T00:05:39.978Z,97917.23
2018-05-29T00:08:06.220Z,97911.29
2018-05-29T00:10:32.438Z,97913.74
2018-05-29T00:12:58.718Z,97904.56
2018-05-29T00:15:24.939Z,97911.64
2018-05-29T00:17:51.166Z,97911.64
2018-05-29T00:20:17.445Z,97914.58
2018-05-29T00:22:43.663Z,97908.16
2018-05-29T00:25:09.890Z,97907.30
2018-05-29T00:27:36.170Z,97901.81
2018-05-29T00:30:02.390Z,97897.67
2018-05-29T00:32:28.625Z,97900.41
2018-05-29T00:34:54.886Z,97899.52
2018-05-29T00:37:21.121Z,97902.17
2018-05-29T00:39:47.347Z,97894.99
2018-05-29T00:42:13.611Z,97896.69
2018-05-29T00:44:39.836Z,97892.92
2018-05-29T00:47:06.105Z,97888.02
2018-05-29T00:49:32.365Z,97889.44
2018-05-29T00:51:58.583Z,97888.58
2018-05-29T00:54:24.851Z,97881.30
2018-05-29T00:56:51.114Z,97877.91
2018-05-29T00:59:17.347Z,97882.05
2018-05-29T01:01:43.591Z,97883.99
2018-05-29T01:04:09.871Z,97885.03
2018-05-29T01:06:36.124Z,97877.50
2018-05-29T01:09:02.434Z,97880.51
2018-05-29T01:11:28.722Z,97879.75
2018-05-29T01:13:54.939Z,97876.74
2018-05-29T01:16:21.173Z,97873.36
2018-05-29T01:18:47.437Z,97881.09
2018-05-29T01:21:13.692Z,97876.78
2018-05-29T01:23:39.915Z,97882.33
2018-05-29T01:26:06.166Z,97878.81
2018-05-29T01:28:32.409Z,97875.89
2018-05-29T01:30:58.647Z,97872.30
2018-05-29T01:33:24.911Z,97882.37
2018-05-29T01:35:51.150Z,97868.50
2018-05-29T01:38:17.390Z,97861.64
2018-05-29T01:40:43.662Z,97860.09
2018-05-29T01:43:09.899Z,97865.47
2018-05-29T01:45:36.135Z,97864.09
2018-05-29T01:48:02.382Z,97849.30
2018-05-29T01:50:28.623Z,97846.84
2018-05-29T01:52:54.902Z,97844.30
2018-05-29T01:55:21.173Z,97836.36
2018-05-29T01:57:47.386Z,97830.53
2018-05-29T02:00:13.657Z,97827.78
2018-05-29T02:02:39.887Z,97826.27
2018-05-29T02:05:06.138Z,97824.95
2018-05-29T02:07:32.415Z,97817.60
2018-05-29T02:09:58.658Z,97816.16
2018-05-29T02:12:24.890Z,97822.39
2018-05-29T02:14:51.166Z,97818.80
2018-05-29T02:17:17.396Z,97820.50
2018-05-29T02:19:43.625Z,97825.56
2018-05-29T02:22:09.862Z,97821.77
2018-05-29T02:24:36.126Z,97812.94
2018-05-29T02:27:02.387Z,97807.40
2018-05-29T02:29:28.634Z,97809.74
2018-05-29T02:31:54.872Z,97802.58
2018-05-29T02:34:21.134Z,97800.16
2018-05-29T02:36:47.379Z,97801.30
2018-05-29T02:39:13.635Z,97799.02
2018-05-29T02:41:39.866Z,97805.98
2018-05-29T02:44:06.117Z,97804.47
2018-05-29T02:46:32.370Z,97798.34
2018-05-29T02:48:58.594Z,97804.67
2018-05-29T02:51:24.874Z,97810.78
2018-05-29T02:53:51.114Z,97811.81
2018-05-29T02:56:17.343Z,97812.30
2018-05-29T02:58:43.585Z,97806.09
2018-05-29T03:01:09.825Z,97809.84
2018-05-29T03:03:36.090Z,97805.60
2018-05-29T03:06:02.331Z,97815.29
2018-05-29T03:08:28.600Z,97815.45
2018-05-29T03:10:54.886Z,97820.83
2018-05-29T03:13:21.118Z,97803.88
2018-05-29T03:15:47.366Z,97812.39
2018-05-29T03:18:13.594Z,97800.89
2018-05-29T03:20:39.882Z,97814.19
2018-05-29T03:23:06.184Z,97820.95
2018-05-29T03:25:32.410Z,97821.91
2018-05-29T03:27:58.706Z,97828.39
2018-05-29T03:30:24.934Z,97824.80
2018-05-29T03:32:51.176Z,97834.05
2018-05-29T03:35:17.455Z,97835.72
2018-05-29T03:37:43.690Z,97832.63
2018-05-29T03:40:09.961Z,97843.50
2018-05-29T03:42:36.210Z,97843.22
2018-05-29T03:45:02.475Z,97834.25
2018-05-29T03:47:28.734Z,97841.15
2018-05-29T03:49:54.982Z,97842.53
2018-05-29T03:52:21.238Z,97836.59
2018-05-29T03:54:47.466Z,97841.32
2018-05-29T03:57:13.762Z,97836.31
2018-05-29T03:59:40.021Z,97837.63
2018-05-29T04:02:06.262Z,97839.53
2018-05-29T04:04:32.523Z,97841.88
2018-05-29T04:06:58.760Z,97832.15
2018-05-29T04:09:25.038Z,97831.86
2018-05-29T04:11:52.399Z,97836.70
2018-05-29T04:14:18.647Z,97841.31
2018-05-29T04:16:44.908Z,97842.52
2018-05-29T04:19:11.145Z,97842.73
2018-05-29T04:21:37.374Z,97840.50
2018-05-29T04:24:03.614Z,97845.39
2018-05-29T04:26:29.847Z,97846.73
2018-05-29T04:28:56.126Z,97848.16
2018-05-29T04:31:22.355Z,97847.08
2018-05-29T04:33:48.583Z,97848.18
2018-05-29T04:36:14.827Z,97856.55
2018-05-29T04:38:41.086Z,97847.36
2018-05-29T04:41:07.399Z,97852.35
2018-05-29T04:43:33.626Z,97852.14
2018-05-29T04:45:59.874Z,97845.28
2018-05-29T04:48:26.126Z,97854.52
2018-05-29T04:50:52.386Z,97843.33
2018-05-29T04:53:18.650Z,97838.16
2018-05-29T04:55:44.867Z,97836.81
2018-05-29T04:58:11.111Z,97830.81
2018-05-29T05:00:37.371Z,97835.64
2018-05-29T05:03:03.641Z,97830.74
2018-05-29T05:05:29.898Z,97823.95
2018-05-29T05:07:56.138Z,97822.92
2018-05-29T05:10:22.366Z,97829.19
2018-05-29T05:12:48.613Z,97820.23
2018-05-29T05:15:14.849Z,97815.91
2018-05-29T05:17:41.119Z,97815.47
2018-05-29T05:20:07.420Z,97815.50
2018-05-29T05:22:33.639Z,97815.09
2018-05-29T05:24:59.890Z,97814.39
2018-05-29T05:27:26.138Z,97811.42
2018-05-29T05:29:52.421Z,97814.42
2018-05-29T05:32:18.646Z,97810.45
2018-05-29T05:34:44.881Z,97812.75
2018-05-29T05:37:11.127Z,97809.64
2018-05-29T05:39:37.434Z,97825.03
2018-05-29T05:42:03.732Z,97806.64
2018-05-29T05:44:29.979Z,97809.77
2018-05-29T05:46:56.210Z,97803.15
2018-05-29T05:49:22.454Z,97815.13
2018-05-29T05:51:48.673Z,97814.05
2018-05-29T05:54:14.932Z,97817.33
2018-05-29T05:56:41.150Z,97814.59
2018-05-29T05:59:07.366Z,97805.91
2018-05-29T06:01:33.611Z,97805.45
2018-05-29T06:03:59.831Z,97806.66
2018-05-29T06:06:26.046Z,97809.30
2018-05-29T06:08:52.294Z,97804.00
2018-05-29T06:11:18.527Z,97806.55
2018-05-29T06:13:44.794Z,97801.97
2018-05-29T06:16:11.051Z,97800.51
2018-05-29T06:18:37.286Z,97807.17
2018-05-29T06:21:03.525Z,97805.16
2018-05-29T06:23:29.774Z,97807.72
2018-05-29T06:25:55.999Z,97809.74
2018-05-29T06:28:22.250Z,97806.31
2018-05-29T06:30:48.475Z,97808.84
2018-05-29T06:33:14.703Z,97812.80
2018-05-29T06:35:40.950Z,97820.02
2018-05-29T06:38:07.213Z,97817.75
2018-05-29T06:40:33.441Z,97814.62
2018-05-29T06:42:59.666Z,97819.75
2018-05-29T06:45:25.911Z,97816.02
2018-05-29T06:47:52.158Z,97813.28
2018-05-29T06:50:18.391Z,97811.47
2018-05-29T06:52:44.646Z,97806.13
2018-05-29T06:55:10.862Z,97807.33
2018-05-29T06:57:37.079Z,97803.77
2018-05-29T07:00:03.378Z,97810.08
2018-05-29T07:02:29.598Z,97800.95
2018-05-29T07:04:55.848Z,97801.59
2018-05-29T07:07:22.091Z,97805.59
2018-05-29T07:09:48.305Z,97805.87
2018-05-29T07:12:14.574Z,97808.14
2018-05-29T07:14:40.798Z,97801.83
2018-05-29T07:17:07.054Z,97804.64
2018-05-29T07:19:33.282Z,97797.50
2018-05-29T07:21:59.508Z,97798.87
2018-05-29T07:24:25.762Z,97792.91
2018-05-29T07:26:51.986Z,97787.76
2018-05-29T07:29:18.290Z,97792.53
2018-05-29T07:31:44.514Z,97787.05
2018-05-29T07:34:10.754Z,97785.28
2018-05-29T07:36:37.005Z,97786.42
2018-05-29T07:39:03.283Z,97782.80
2018-05-29T07:41:29.558Z,97782.65
2018-05-29T07:43:55.807Z,97791.25
2018-05-29T07:46:22.054Z,97784.74
2018-05-29T07:48:48.303Z,97787.94
2018-05-29T07:51:14.538Z,97777.11
2018-05-29T07:53:40.820Z,97780.79
2018-05-29T07:56:07.075Z,97787.54
2018-05-29T07:58:33.313Z,97791.68
2018-05-29T08:00:59.588Z,97782.37
2018-05-29T08:03:25.823Z,97783.08
2018-05-29T08:05:52.076Z,97773.38
2018-05-29T08:08:18.307Z,97776.52
2018-05-29T08:10:44.607Z,97781.25
2018-05-29T08:13:10.875Z,97782.54
2018-05-29T08:15:37.131Z,97777.36
2018-05-29T08:18:03.422Z,97775.17
2018-05-29T08:20:29.651Z,97775.12
2018-05-29T08:22:55.876Z,97776.02
2018-05-29T08:25:22.135Z,97773.78
2018-05-29T08:27:48.366Z,97776.25
2018-05-29T08:30:14.629Z,97770.56
2018-05-29T08:32:40.870Z,97767.80
2018-05-29T08:35:07.107Z,97766.50
2018-05-29T08:37:33.380Z,97763.28
2018-05-29T08:39:59.607Z,97768.22
2018-05-29T08:42:25.898Z,97766.64
2018-05-29T08:44:52.132Z,97765.41
2018-05-29T08:47:18.370Z,97758.89
2018-05-29T08:49:44.627Z,97751.85
2018-05-29T08:52:10.859Z,97753.34
2018-05-29T08:54:37.122Z,97754.86
2018-05-29T08:57:03.391Z,97751.58
2018-05-29T08:59:29.615Z,97750.45
2018-05-29T09:01:55.871Z,97758.89
2018-05-29T09:04:22.168Z,97758.51
2018-05-29T09:06:48.414Z,97752.91
2018-05-29T09:09:14.679Z,97746.10
2018-05-29T09:11:40.919Z,97747.06
2018-05-29T09:14:07.159Z,97741.31
2018-05-29T09:16:33.403Z,97746.34
2018-05-29T09:18:59.699Z,97743.81
2018-05-29T09:21:25.934Z,97739.92
2018-05-29T09:23:52.155Z,97738.91
2018-05-29T09:26:18.398Z,97745.73
2018-05-29T09:28:44.629Z,97742.47
2018-05-29T09:31:10.886Z,97740.10
2018-05-29T09:33:37.110Z,97742.31
2018-05-29T09:36:03.404Z,97738.91
2018-05-29T09:38:29.652Z,97735.91
2018-05-29T09:40:55.874Z,97746.33
2018-05-29T09:43:22.170Z,97739.70
2018-05-29T09:45:48.439Z,97735.43
2018-05-29T09:48:14.684Z,97735.29
2018-05-29T09:50:40.954Z,97735.77
2018-05-29T09:53:07.182Z,97734.61
2018-05-29T09:55:33.434Z,97736.76
2018-05-29T09:57:59.657Z,97739.09
2018-05-29T10:00:31.895Z,97731.56
2018-05-29T10:02:58.138Z,97732.01
2018-05-29T10:05:24.370Z,97728.24
2018-05-29T10:07:50.606Z,97726.19
2018-05-29T10:10:16.891Z,97717.83
2018-05-29T10:12:43.115Z,97716.39
2018-05-29T10:15:09.354Z,97716.73
2018-05-29T10:17:35.599Z,97699.34
2018-05-29T10:20:01.831Z,97709.30
2018-05-29T10:22:28.067Z,97703.28
2018-05-29T10:24:54.354Z,97707.39
2018-05-29T10:27:20.570Z,97701.63
2018-05-29T10:29:46.790Z,97708.43
2018-05-29T10:32:13.060Z,97702.52
2018-05-29T10:34:39.283Z,97710.79
2018-05-29T10:37:05.534Z,97703.27
2018-05-29T10:39:31.759Z,97694.25
2018-05-29T10:41:57.994Z,97686.25
2018-05-29T10:44:24.247Z,97686.97
2018-05-29T10:46:50.460Z,97685.98
2018-05-29T10:49:16.710Z,97684.45
2018-05-29T10:51:42.939Z,97685.72
2018-05-29T10:54:09.167Z,97691.78
2018-05-29T10:56:35.426Z,97681.10
2018-05-29T10:59:01.682Z,97683.96
2018-05-29T11:01:27.946Z,97680.41
2018-05-29T11:03:54.166Z,97681.00
2018-05-29T11:06:20.458Z,97682.76
2018-05-29T11:08:46.705Z,97677.55
2018-05-29T11:11:12.972Z,97678.61
2018-05-29T11:13:39.219Z,97672.35
2018-05-29T11:16:05.456Z,97668.36
2018-05-29T11:18:31.701Z,97669.90
2018-05-29T11:20:57.962Z,97675.50
2018-05-29T11:23:24.182Z,97676.87
2018-05-29T11:25:50.449Z,97673.89
2018-05-29T11:28:16.690Z,97667.11
2018-05-29T11:30:42.907Z,97665.77
2018-05-29T11:33:09.178Z,97666.67
2018-05-29T11:35:35.398Z,97671.22
2018-05-29T11:38:01.694Z,97659.14
2018-05-29T11:40:27.927Z,97656.63
2018-05-29T11:42:54.154Z,97658.73
2018-05-29T11:45:20.414Z,97652.70
2018-05-29T11:47:46.634Z,97650.38
2018-05-29T11:50:12.923Z,97641.80
2018-05-29T11:52:39.159Z,97644.17
2018-05-29T11:55:05.447Z,97644.95
2018-05-29T11:57:31.698Z,97635.96
2018-05-29T11:59:57.927Z,97642.86
2018-05-29T12:02:24.256Z,97627.59
2018-05-29T12:04:57.474Z,97633.17
2018-05-29T12:07:23.802Z,97632.75
2018-05-29T12:09:50.034Z,97631.17
2018-05-29T12:12:24.295Z,97626.98
2018-05-29T12:14:50.551Z,97628.16
2018-05-29T12:17:16.798Z,97625.45
2018-05-29T12:19:43.058Z,97619.45
2018-05-29T12:22:09.294Z,97631.16
2018-05-29T12:24:35.563Z,97615.80
2018-05-29T12:27:01.818Z,97613.50
2018-05-29T12:29:28.063Z,97618.39
2018-05-29T12:31:54.323Z,97614.44
2018-05-29T12:34:20.555Z,97597.98
2018-05-29T12:36:46.834Z,97603.58
2018-05-29T12:39:13.085Z,97596.86
2018-05-29T12:41:39.329Z,97596.11
2018-05-29T12:44:05.583Z,97593.58
2018-05-29T12:46:31.815Z,97596.75
2018-05-29T12:48:58.074Z,97587.41
2018-05-29T12:51:24.338Z,97591.75
2018-05-29T12:53:50.582Z,97591.03
2018-05-29T12:56:16.838Z,97581.17
2018-05-29T12:58:43.114Z,97588.30
2018-05-29T13:01:09.401Z,97591.42
2018-05-29T13:03:35.630Z,97585.12
2018-05-29T13:06:01.855Z,97588.05
2018-05-29T13:08:28.123Z,97591.64
2018-05-29T13:10:54.351Z,97587.20
2018-05-29T13:13:20.643Z,97583.52
2018-05-29T13:15:46.874Z,97577.12
2018-05-29T13:18:13.103Z,97574.97
2018-05-29T13:20:39.358Z,97571.58
2018-05-29T13:23:05.595Z,97571.40
2018-05-29T13:25:31.856Z,97564.61
2018-05-29T13:27:58.157Z,97565.45
2018-05-29T13:30:24.370Z,97561.05
2018-05-29T13:32:50.627Z,97555.41
2018-05-29T13:35:16.882Z,97557.71
2018-05-29T13:37:43.145Z,97556.60
2018-05-29T13:40:09.375Z,97553.51
2018-05-29T13:42:35.607Z,97548.92
2018-05-29T13:45:01.885Z,97545.45
2018-05-29T13:47:28.136Z,97547.51
2018-05-29T13:49:54.394Z,97549.11
2018-05-29T13:52:20.622Z,97543.36
2018-05-29T13:54:46.865Z,97542.04
2018-05-29T13:57:13.135Z,97539.25
2018-05-29T13:59:39.367Z,97537.48
2018-05-29T14:02:05.670Z,97540.95
2018-05-29T14:04:31.903Z,97534.80
2018-05-29T14:06:58.129Z,97531.87
2018-05-29T14:09:24.379Z,97519.64
2018-05-29T14:11:50.602Z,97512.71
2018-05-29T14:14:16.887Z,97514.03
2018-05-29T14:16:43.161Z,97504.09
2018-05-29T14:19:09.405Z,97501.47
2018-05-29T14:21:35.670Z,97502.95
2018-05-29T14:24:01.887Z,97506.10
2018-05-29T14:26:28.145Z,97496.08
2018-05-29T14:28:54.371Z,97497.80
2018-05-29T14:31:20.586Z,97499.59
2018-05-29T14:33:46.831Z,97493.88
2018-05-29T14:36:13.058Z,97493.95
2018-05-29T14:38:39.303Z,97489.02
2018-05-29T14:41:05.549Z,97483.01
2018-05-29T14:43:31.781Z,97481.98
2018-05-29T14:45:58.042Z,97480.16
2018-05-29T14:48:24.262Z,97481.27
2018-05-29T14:50:50.527Z,97484.34
2018-05-29T14:53:16.808Z,97469.38
2018-05-29T14:55:43.050Z,97470.95
2018-05-29T14:58:09.269Z,97475.45
2018-05-29T15:00:35.535Z,97475.56
2018-05-29T15:03:01.767Z,97478.92
2018-05-29T15:05:28.043Z,97474.36
2018-05-29T15:07:54.254Z,97476.23
2018-05-29T15:10:20.476Z,97465.02
2018-05-29T15:12:46.731Z,97460.63
2018-05-29T15:15:12.968Z,97449.98
2018-05-29T15:17:39.223Z,97452.74
2018-05-29T15:20:05.477Z,97452.63
2018-05-29T15:22:31.722Z,97452.97
2018-05-29T15:24:58.006Z,97454.66
2018-05-29T15:27:24.446Z,97453.08
2018-05-29T15:29:50.709Z,97451.14
2018-05-29T15:32:16.943Z,97447.67
2018-05-29T15:34:43.199Z,97449.14
2018-05-29T15:37:09.458Z,97450.13
2018-05-29T15:39:35.683Z,97449.06
2018-05-29T15:42:01.959Z,97445.67
2018-05-29T15:44:28.202Z,97446.38
2018-05-29T15:46:54.623Z,97448.09
2018-05-29T15:49:20.878Z,97446.13
2018-05-29T15:51:47.127Z,97449.69
2018-05-29T15:54:13.395Z,97449.39
2018-05-29T15:56:39.634Z,97447.91
2018-05-29T15:59:05.895Z,97453.60
2018-05-29T16:01:32.126Z,97444.43
2018-05-29T16:03:58.395Z,97445.47
2018-05-29T16:06:24.654Z,97437.28
2018-05-29T16:08:50.893Z,97440.05
2018-05-29T16:11:17.209Z,97442.09
2018-05-29T16:13:43.654Z,97447.63
2018-05-29T16:16:09.928Z,97441.17
2018-05-29T16:18:36.177Z,97440.42
2018-05-29T16:21:02.418Z,97447.04
2018-05-29T16:23:28.691Z,97442.88
2018-05-29T16:25:54.929Z,97444.04
2018-05-29T16:28:21.174Z,97448.59
2018-05-29T16:30:47.470Z,97447.58
2018-05-29T16:33:13.702Z,97449.28
2018-05-29T16:35:39.955Z,97451.84
2018-05-29T16:38:06.202Z,97454.73
2018-05-29T16:40:32.461Z,97453.48
2018-05-29T16:42:58.723Z,97449.25
2018-05-29T16:45:24.959Z,97447.52
2018-05-29T16:47:51.231Z,97451.57
2018-05-29T16:50:17.490Z,97451.06
2018-05-29T16:52:43.710Z,97444.70
2018-05-29T16:55:09.966Z,97439.92
2018-05-29T16:57:36.218Z,97444.59
2018-05-29T17:00:02.531Z,97446.70
2018-05-29T17:02:28.754Z,97448.36
2018-05-29T17:04:54.989Z,97446.55
2018-05-29T17:07:21.233Z,97449.33
2018-05-29T17:09:47.479Z,97445.41
2018-05-29T17:12:13.723Z,97439.20
2018-05-29T17:14:39.971Z,97433.73
2018-05-29T17:17:06.259Z,97432.02
2018-05-29T17:19:32.527Z,97436.09
2018-05-29T17:21:58.754Z,97433.28
2018-05-29T17:24:25.029Z,97432.30
2018-05-29T17:26:51.274Z,97435.25
2018-05-29T17:29:17.546Z,97429.91
2018-05-29T17:31:43.795Z,97427.05
2018-05-29T17:34:10.032Z,97429.59
2018-05-29T17:36:36.294Z,97435.06
2018-05-29T17:39:02.598Z,97435.19
2018-05-29T17:41:28.882Z,97438.58
2018-05-29T17:43:55.131Z,97441.12
2018-05-29T17:46:21.393Z,97446.30
2018-05-29T17:48:47.647Z,97447.16
2018-05-29T17:51:13.886Z,97442.73
2018-05-29T17:53:40.378Z,97446.45
2018-05-29T17:56:06.615Z,97451.06
2018-05-29T17:58:32.834Z,97450.42
2018-05-29T18:00:59.107Z,97451.15
2018-05-29T18:03:25.370Z,97447.36
2018-05-29T18:05:51.620Z,97450.96
2018-05-29T18:08:17.903Z,97462.08
2018-05-29T18:10:44.134Z,97467.69
2018-05-29T18:13:10.354Z,97470.84
2018-05-29T18:15:36.606Z,97460.98
2018-05-29T18:18:02.855Z,97464.73
2018-05-29T18:20:29.147Z,97456.14
2018-05-29T18:22:55.402Z,97461.36
2018-05-29T18:25:21.641Z,97460.62
2018-05-29T18:27:47.894Z,97455.58
2018-05-29T18:30:14.142Z,97457.28
2018-05-29T18:32:40.402Z,97454.79
2018-05-29T18:35:06.663Z,97460.89
2018-05-29T18:37:32.919Z,97462.16
2018-05-29T18:39:59.172Z,97471.80
2018-05-29T18:42:25.428Z,97473.59
2018-05-29T18:44:51.699Z,97470.13
2018-05-29T18:47:17.925Z,97477.69
2018-05-29T18:49:44.167Z,97472.25
2018-05-29T18:52:10.427Z,97469.26
2018-05-29T18:54:36.667Z,97465.06
2018-05-29T18:57:02.967Z,97464.77
2018-05-29T18:59:29.198Z,97475.21
2018-05-29T19:01:55.460Z,97479.98
2018-05-29T19:04:21.728Z,97483.81
2018-05-29T19:06:48.023Z,97485.67
2018-05-29T19:09:14.306Z,97493.98
2018-05-29T19:11:40.812Z,97485.98
2018-05-29T19:14:07.182Z,97489.57
2018-05-29T19:16:33.736Z,97489.88
2018-05-29T19:19:00.048Z,97503.00
2018-05-29T19:21:26.371Z,97505.90
2018-05-29T19:23:52.609Z,97513.69
2018-05-29T19:26:18.838Z,97517.50
2018-05-29T19:28:45.322Z,97521.48
2018-05-29T19:31:11.731Z,97526.80
2018-05-29T19:33:37.998Z,97526.71
2018-05-29T19:36:04.283Z,97533.29
2018-05-29T19:38:30.929Z,97541.45
2018-05-29T19:40:57.242Z,97550.44
2018-05-29T19:43:23.738Z,97542.95
2018-05-29T19:45:50.308Z,97538.77
2018-05-29T19:48:16.642Z,97541.16
2018-05-29T19:50:43.091Z,97538.39
2018-05-29T19:53:09.379Z,97538.84
2018-05-29T19:55:35.916Z,97537.91
2018-05-29T19:58:02.535Z,97537.09
2018-05-29T20:00:28.927Z,97534.69
2018-05-29T20:02:55.279Z,97536.11
2018-05-29T20:05:21.638Z,97535.07
2018-05-29T20:07:47.981Z,97522.69
2018-05-29T20:10:14.391Z,97521.50
2018-05-29T20:12:40.881Z,97525.50
2018-05-29T20:15:07.173Z,97534.15
2018-05-29T20:17:33.426Z,97543.02
2018-05-29T20:19:59.677Z,97546.17
2018-05-29T20:22:26.310Z,97553.15
2018-05-29T20:24:52.780Z,97557.66
2018-05-29T20:27:19.135Z,97554.22
2018-05-29T20:29:45.550Z,97549.19
2018-05-29T20:32:11.839Z,97537.39
2018-05-29T20:34:38.215Z,97549.59
2018-05-29T20:37:04.621Z,97554.61
2018-05-29T20:39:30.952Z,97562.36
2018-05-29T20:41:57.252Z,97545.36
2018-05-29T20:44:23.586Z,97544.17
2018-05-29T20:46:50.018Z,97532.48
2018-05-29T20:49:16.283Z,97534.82
2018-05-29T20:51:42.709Z,97533.14
2018-05-29T20:54:09.222Z,97523.98
2018-05-29T20:56:35.612Z,97517.42
2018-05-29T20:59:01.941Z,97519.55
2018-05-29T21:01:28.216Z,97521.59
2018-05-29T21:03:54.446Z,97509.94
2018-05-29T21:06:21.090Z,97510.78
2018-05-29T21:08:47.497Z,97519.20
2018-05-29T21:11:13.779Z,97523.75
2018-05-29T21:13:40.267Z,97525.63
2018-05-29T21:16:06.586Z,97530.02
2018-05-29T21:18:33.084Z,97534.05
2018-05-29T21:21:00.373Z,97532.01
2018-05-29T21:23:26.634Z,97530.21
2018-05-29T21:25:53.068Z,97521.52
2018-05-29T21:28:19.379Z,97526.38
2018-05-29T21:30:45.955Z,97524.45
2018-05-29T21:33:12.233Z,97523.19
2018-05-29T21:35:38.821Z,97527.86
2018-05-29T21:38:05.351Z,97525.69
2018-05-29T21:40:31.928Z,97528.77
2018-05-29T21:42:58.516Z,97538.45
2018-05-29T21:45:24.755Z,97546.20
2018-05-29T21:47:51.031Z,97549.56
2018-05-29T21:50:17.592Z,97535.63
2018-05-29T21:52:44.144Z,97523.11
2018-05-29T21:55:11.089Z,97509.55
2018-05-29T21:57:37.359Z,97517.05
2018-05-29T22:00:03.747Z,97513.70
2018-05-29T22:02:30.191Z,97514.33
2018-05-29T22:04:56.555Z,97507.87
2018-05-29T22:07:22.919Z,97509.95
2018-05-29T22:09:49.464Z,97509.02
2018-05-29T22:12:16.158Z,97510.98
2018-05-29T22:14:42.722Z,97509.72
2018-05-29T22:17:09.023Z,97498.84
2018-05-29T22:19:35.278Z,97517.75
2018-05-29T22:22:01.725Z,97521.50
2018-05-29T22:24:28.107Z,97523.54
2018-05-29T22:26:54.659Z,97529.23
2018-05-29T22:29:20.935Z,97526.41
2018-05-29T22:31:47.199Z,97526.56
2018-05-29T22:34:13.754Z,97528.77
2018-05-29T22:36:40.131Z,97524.17
2018-05-29T22:39:06.591Z,97524.45
2018-05-29T22:41:33.035Z,97528.17
2018-05-29T22:43:59.423Z,97524.39
2018-05-29T22:46:25.888Z,97529.11
2018-05-29T22:48:52.258Z,97530.89
2018-05-29T22:51:18.519Z,97554.08
2018-05-29T22:53:44.814Z,97560.90
2018-05-29T22:56:11.329Z,97565.41
2018-05-29T22:58:37.639Z,97559.09
2018-05-29T23:01:04.193Z,97553.73
2018-05-29T23:03:30.694Z,97558.12
2018-05-29T23:05:57.000Z,97562.00
2018-05-29T23:08:23.623Z,97561.66
2018-05-29T23:10:49.917Z,97566.12
2018-05-29T23:13:16.263Z,97562.42
2018-05-29T23:15:42.860Z,97566.66
2018-05-29T23:18:09.491Z,97573.27
2018-05-29T23:20:35.826Z,97575.81
2018-05-29T23:23:02.042Z,97583.64
2018-05-29T23:25:28.481Z,97581.89
2018-05-29T23:27:54.746Z,97574.27
2018-05-29T23:30:20.994Z,97578.09
2018-05-29T23:32:47.234Z,97579.38
2018-05-29T23:35:13.521Z,97585.03
2018-05-29T23:37:39.751Z,97579.27
2018-05-29T23:40:05.983Z,97571.20
2018-05-29T23:42:32.247Z,97582.23
2018-05-29T23:44:58.727Z,97579.67
2018-05-29T23:47:24.957Z,97584.97
2018-05-29T23:49:51.237Z,97587.88
2018-05-29T23:52:17.499Z,97593.82
2018-05-29T23:54:43.747Z,97585.61
2018-05-29T23:57:10.019Z,97587.30
2018-05-29T23:59:36.255Z,97584.94
